sensor_id;sensor_type;location;lat;lon;timestamp;P1;durP1;ratioP1;P2;durP2;ratioP2
11763;SDS011;5939;56.522;14.950;2022-07-23T00:02:21;3.03;;;2.40;;
11763;SDS011;5939;56.522;14.950;2022-07-23T00:04:46;3.23;;;1.93;;
11763;SDS011;5939;56.522;14.950;2022-07-23T00:07:12;4.80;;;2.60;;
11763;SDS011;5939;56.522;14.950;2022-07-23T00:09:38;5.70;;;2.40;;
11763;SDS011;5939;56.522;14.950;2022-07-23T00:12:04;4.90;;;2.83;;
11763;SDS011;5939;56.522;14.950;2022-07-23T00:14:30;5.57;;;2.57;;
11763;SDS011;5939;56.522;14.950;2022-07-23T00:16:56;6.97;;;2.87;;
11763;SDS011;5939;56.522;14.950;2022-07-23T00:19:21;4.53;;;2.53;;
11763;SDS011;5939;56.522;14.950;2022-07-23T00:21:47;3.77;;;2.60;;
11763;SDS011;5939;56.522;14.950;2022-07-23T00:24:13;4.00;;;2.43;;
11763;SDS011;5939;56.522;14.950;2022-07-23T00:26:38;6.27;;;2.50;;
11763;SDS011;5939;56.522;14.950;2022-07-23T00:29:04;4.50;;;2.33;;
11763;SDS011;5939;56.522;14.950;2022-07-23T00:31:30;4.80;;;2.60;;
11763;SDS011;5939;56.522;14.950;2022-07-23T00:33:55;5.57;;;2.50;;
11763;SDS011;5939;56.522;14.950;2022-07-23T00:36:22;3.97;;;2.37;;
11763;SDS011;5939;56.522;14.950;2022-07-23T00:38:48;4.13;;;2.80;;
11763;SDS011;5939;56.522;14.950;2022-07-23T00:41:14;4.90;;;2.37;;
11763;SDS011;5939;56.522;14.950;2022-07-23T00:43:40;4.90;;;2.40;;
11763;SDS011;5939;56.522;14.950;2022-07-23T00:46:06;6.27;;;2.60;;
11763;SDS011;5939;56.522;14.950;2022-07-23T00:48:32;5.57;;;3.00;;
11763;SDS011;5939;56.522;14.950;2022-07-23T00:50:57;4.00;;;2.30;;
11763;SDS011;5939;56.522;14.950;2022-07-23T00:53:23;4.57;;;2.33;;
11763;SDS011;5939;56.522;14.950;2022-07-23T00:55:49;5.23;;;2.47;;
11763;SDS011;5939;56.522;14.950;2022-07-23T00:58:15;4.87;;;2.50;;
11763;SDS011;5939;56.522;14.950;2022-07-23T01:00:42;3.33;;;2.30;;
11763;SDS011;5939;56.522;14.950;2022-07-23T01:03:08;4.50;;;2.20;;
11763;SDS011;5939;56.522;14.950;2022-07-23T01:05:33;2.73;;;2.07;;
11763;SDS011;5939;56.522;14.950;2022-07-23T01:07:59;6.40;;;2.40;;
11763;SDS011;5939;56.522;14.950;2022-07-23T01:10:25;3.27;;;2.10;;
11763;SDS011;5939;56.522;14.950;2022-07-23T01:13:07;4.23;;;2.77;;
11763;SDS011;5939;56.522;14.950;2022-07-23T01:15:35;5.80;;;2.17;;
11763;SDS011;5939;56.522;14.950;2022-07-23T01:18:02;6.17;;;2.60;;
11763;SDS011;5939;56.522;14.950;2022-07-23T01:20:29;4.13;;;2.50;;
11763;SDS011;5939;56.522;14.950;2022-07-23T01:22:55;2.40;;;1.90;;
11763;SDS011;5939;56.522;14.950;2022-07-23T01:25:21;4.77;;;2.20;;
11763;SDS011;5939;56.522;14.950;2022-07-23T01:27:48;3.57;;;1.90;;
11763;SDS011;5939;56.522;14.950;2022-07-23T01:30:14;3.63;;;2.07;;
11763;SDS011;5939;56.522;14.950;2022-07-23T01:32:39;4.37;;;2.23;;
11763;SDS011;5939;56.522;14.950;2022-07-23T01:35:05;4.93;;;2.27;;
11763;SDS011;5939;56.522;14.950;2022-07-23T01:37:32;3.70;;;1.93;;
11763;SDS011;5939;56.522;14.950;2022-07-23T01:39:58;3.23;;;1.93;;
11763;SDS011;5939;56.522;14.950;2022-07-23T01:42:24;4.33;;;2.17;;
11763;SDS011;5939;56.522;14.950;2022-07-23T01:44:50;5.00;;;2.17;;
11763;SDS011;5939;56.522;14.950;2022-07-23T01:47:16;3.30;;;2.10;;
11763;SDS011;5939;56.522;14.950;2022-07-23T01:49:42;4.43;;;2.40;;
11763;SDS011;5939;56.522;14.950;2022-07-23T01:52:07;4.43;;;2.30;;
11763;SDS011;5939;56.522;14.950;2022-07-23T01:54:36;3.53;;;2.10;;
11763;SDS011;5939;56.522;14.950;2022-07-23T01:57:02;6.50;;;2.40;;
11763;SDS011;5939;56.522;14.950;2022-07-23T01:59:28;3.97;;;1.93;;
11763;SDS011;5939;56.522;14.950;2022-07-23T02:01:55;4.00;;;2.60;;
11763;SDS011;5939;56.522;14.950;2022-07-23T02:04:21;5.17;;;2.17;;
11763;SDS011;5939;56.522;14.950;2022-07-23T02:06:47;4.00;;;2.00;;
11763;SDS011;5939;56.522;14.950;2022-07-23T02:09:13;5.70;;;2.30;;
11763;SDS011;5939;56.522;14.950;2022-07-23T02:11:40;5.30;;;2.70;;
11763;SDS011;5939;56.522;14.950;2022-07-23T02:14:06;5.30;;;2.50;;
11763;SDS011;5939;56.522;14.950;2022-07-23T02:16:31;3.13;;;2.17;;
11763;SDS011;5939;56.522;14.950;2022-07-23T02:18:57;5.33;;;1.83;;
11763;SDS011;5939;56.522;14.950;2022-07-23T02:21:23;3.33;;;1.87;;
11763;SDS011;5939;56.522;14.950;2022-07-23T02:23:48;3.80;;;1.90;;
11763;SDS011;5939;56.522;14.950;2022-07-23T02:26:14;3.37;;;2.27;;
11763;SDS011;5939;56.522;14.950;2022-07-23T02:28:40;2.73;;;1.80;;
11763;SDS011;5939;56.522;14.950;2022-07-23T02:31:06;4.03;;;2.07;;
11763;SDS011;5939;56.522;14.950;2022-07-23T02:33:32;4.27;;;2.10;;
11763;SDS011;5939;56.522;14.950;2022-07-23T02:35:58;3.40;;;1.70;;
11763;SDS011;5939;56.522;14.950;2022-07-23T02:38:23;4.03;;;1.90;;
11763;SDS011;5939;56.522;14.950;2022-07-23T02:40:49;3.87;;;2.00;;
11763;SDS011;5939;56.522;14.950;2022-07-23T02:43:15;3.60;;;1.80;;
11763;SDS011;5939;56.522;14.950;2022-07-23T02:45:40;3.43;;;2.23;;
11763;SDS011;5939;56.522;14.950;2022-07-23T02:48:06;3.57;;;1.93;;
11763;SDS011;5939;56.522;14.950;2022-07-23T02:50:32;2.97;;;2.10;;
11763;SDS011;5939;56.522;14.950;2022-07-23T02:52:57;2.87;;;1.87;;
11763;SDS011;5939;56.522;14.950;2022-07-23T02:55:23;3.00;;;1.83;;
11763;SDS011;5939;56.522;14.950;2022-07-23T02:57:49;3.43;;;2.20;;
11763;SDS011;5939;56.522;14.950;2022-07-23T03:00:15;4.37;;;2.20;;
11763;SDS011;5939;56.522;14.950;2022-07-23T03:02:40;3.37;;;2.10;;
11763;SDS011;5939;56.522;14.950;2022-07-23T03:05:06;3.40;;;1.90;;
11763;SDS011;5939;56.522;14.950;2022-07-23T03:07:32;3.60;;;2.00;;
11763;SDS011;5939;56.522;14.950;2022-07-23T03:09:58;3.93;;;2.20;;
11763;SDS011;5939;56.522;14.950;2022-07-23T03:12:23;3.43;;;2.23;;
11763;SDS011;5939;56.522;14.950;2022-07-23T03:14:49;3.70;;;2.10;;
11763;SDS011;5939;56.522;14.950;2022-07-23T03:17:14;2.63;;;1.73;;
11763;SDS011;5939;56.522;14.950;2022-07-23T03:19:40;3.67;;;2.10;;
11763;SDS011;5939;56.522;14.950;2022-07-23T03:22:06;3.47;;;1.87;;
11763;SDS011;5939;56.522;14.950;2022-07-23T03:24:32;5.17;;;2.00;;
11763;SDS011;5939;56.522;14.950;2022-07-23T03:27:16;2.90;;;1.80;;
11763;SDS011;5939;56.522;14.950;2022-07-23T03:29:42;4.07;;;2.33;;
11763;SDS011;5939;56.522;14.950;2022-07-23T03:32:07;2.10;;;1.67;;
11763;SDS011;5939;56.522;14.950;2022-07-23T03:34:33;3.87;;;1.80;;
11763;SDS011;5939;56.522;14.950;2022-07-23T03:36:59;4.20;;;2.17;;
11763;SDS011;5939;56.522;14.950;2022-07-23T03:39:24;2.23;;;2.00;;
11763;SDS011;5939;56.522;14.950;2022-07-23T03:41:50;4.00;;;1.87;;
11763;SDS011;5939;56.522;14.950;2022-07-23T03:44:16;2.27;;;1.87;;
11763;SDS011;5939;56.522;14.950;2022-07-23T03:46:41;3.73;;;1.83;;
11763;SDS011;5939;56.522;14.950;2022-07-23T03:49:07;2.57;;;1.60;;
11763;SDS011;5939;56.522;14.950;2022-07-23T03:51:33;3.57;;;2.00;;
11763;SDS011;5939;56.522;14.950;2022-07-23T03:53:58;3.97;;;2.00;;
11763;SDS011;5939;56.522;14.950;2022-07-23T03:56:24;5.40;;;2.10;;
11763;SDS011;5939;56.522;14.950;2022-07-23T03:58:51;2.63;;;1.90;;
11763;SDS011;5939;56.522;14.950;2022-07-23T04:01:16;3.73;;;1.97;;
11763;SDS011;5939;56.522;14.950;2022-07-23T04:03:42;2.93;;;1.73;;
11763;SDS011;5939;56.522;14.950;2022-07-23T04:06:07;3.20;;;2.17;;
11763;SDS011;5939;56.522;14.950;2022-07-23T04:08:33;2.80;;;1.87;;
11763;SDS011;5939;56.522;14.950;2022-07-23T04:10:59;2.90;;;2.07;;
11763;SDS011;5939;56.522;14.950;2022-07-23T04:13:24;2.10;;;1.80;;
11763;SDS011;5939;56.522;14.950;2022-07-23T04:15:50;2.80;;;1.67;;
11763;SDS011;5939;56.522;14.950;2022-07-23T04:18:16;2.97;;;2.00;;
11763;SDS011;5939;56.522;14.950;2022-07-23T04:20:43;4.10;;;1.97;;
11763;SDS011;5939;56.522;14.950;2022-07-23T04:23:09;2.97;;;1.80;;
11763;SDS011;5939;56.522;14.950;2022-07-23T04:25:35;2.40;;;1.60;;
11763;SDS011;5939;56.522;14.950;2022-07-23T04:28:00;2.83;;;1.60;;
11763;SDS011;5939;56.522;14.950;2022-07-23T04:30:26;2.90;;;1.67;;
11763;SDS011;5939;56.522;14.950;2022-07-23T04:32:52;2.27;;;1.80;;
11763;SDS011;5939;56.522;14.950;2022-07-23T04:35:18;3.50;;;1.97;;
11763;SDS011;5939;56.522;14.950;2022-07-23T04:37:43;1.73;;;1.60;;
11763;SDS011;5939;56.522;14.950;2022-07-23T04:40:09;2.67;;;1.60;;
11763;SDS011;5939;56.522;14.950;2022-07-23T04:42:36;2.23;;;1.50;;
11763;SDS011;5939;56.522;14.950;2022-07-23T04:45:01;3.73;;;1.77;;
11763;SDS011;5939;56.522;14.950;2022-07-23T04:47:28;3.20;;;1.77;;
11763;SDS011;5939;56.522;14.950;2022-07-23T04:49:54;3.30;;;1.90;;
11763;SDS011;5939;56.522;14.950;2022-07-23T04:52:20;2.43;;;1.60;;
11763;SDS011;5939;56.522;14.950;2022-07-23T04:54:45;1.90;;;1.70;;
11763;SDS011;5939;56.522;14.950;2022-07-23T04:57:11;2.03;;;1.83;;
11763;SDS011;5939;56.522;14.950;2022-07-23T04:59:37;2.50;;;1.90;;
11763;SDS011;5939;56.522;14.950;2022-07-23T05:02:02;3.03;;;2.00;;
11763;SDS011;5939;56.522;14.950;2022-07-23T05:04:28;2.20;;;1.60;;
11763;SDS011;5939;56.522;14.950;2022-07-23T05:06:54;3.03;;;1.77;;
11763;SDS011;5939;56.522;14.950;2022-07-23T05:09:19;2.13;;;1.70;;
11763;SDS011;5939;56.522;14.950;2022-07-23T05:11:45;2.33;;;1.57;;
11763;SDS011;5939;56.522;14.950;2022-07-23T05:14:10;2.77;;;1.93;;
11763;SDS011;5939;56.522;14.950;2022-07-23T05:16:37;2.10;;;1.60;;
11763;SDS011;5939;56.522;14.950;2022-07-23T05:19:03;3.10;;;1.90;;
11763;SDS011;5939;56.522;14.950;2022-07-23T05:21:29;3.23;;;2.00;;
11763;SDS011;5939;56.522;14.950;2022-07-23T05:23:54;2.87;;;1.80;;
11763;SDS011;5939;56.522;14.950;2022-07-23T05:26:20;1.70;;;1.60;;
11763;SDS011;5939;56.522;14.950;2022-07-23T05:28:46;3.33;;;1.70;;
11763;SDS011;5939;56.522;14.950;2022-07-23T05:31:11;2.40;;;1.40;;
11763;SDS011;5939;56.522;14.950;2022-07-23T05:33:37;2.63;;;1.60;;
11763;SDS011;5939;56.522;14.950;2022-07-23T05:36:03;1.73;;;1.57;;
11763;SDS011;5939;56.522;14.950;2022-07-23T05:38:29;3.87;;;1.90;;
11763;SDS011;5939;56.522;14.950;2022-07-23T05:40:56;1.70;;;1.53;;
11763;SDS011;5939;56.522;14.950;2022-07-23T05:43:22;2.23;;;1.67;;
11763;SDS011;5939;56.522;14.950;2022-07-23T05:45:48;2.80;;;1.70;;
11763;SDS011;5939;56.522;14.950;2022-07-23T05:48:13;1.93;;;1.73;;
11763;SDS011;5939;56.522;14.950;2022-07-23T05:50:39;2.13;;;1.43;;
11763;SDS011;5939;56.522;14.950;2022-07-23T05:53:05;3.17;;;1.43;;
11763;SDS011;5939;56.522;14.950;2022-07-23T05:55:30;2.53;;;1.63;;
11763;SDS011;5939;56.522;14.950;2022-07-23T05:57:56;2.63;;;1.57;;
11763;SDS011;5939;56.522;14.950;2022-07-23T06:00:23;2.97;;;1.60;;
11763;SDS011;5939;56.522;14.950;2022-07-23T06:02:50;2.67;;;1.67;;
11763;SDS011;5939;56.522;14.950;2022-07-23T06:05:15;2.97;;;1.67;;
11763;SDS011;5939;56.522;14.950;2022-07-23T06:07:42;1.60;;;1.50;;
11763;SDS011;5939;56.522;14.950;2022-07-23T06:10:07;1.80;;;1.60;;
11763;SDS011;5939;56.522;14.950;2022-07-23T06:12:33;2.03;;;1.60;;
11763;SDS011;5939;56.522;14.950;2022-07-23T06:14:59;2.83;;;1.70;;
11763;SDS011;5939;56.522;14.950;2022-07-23T06:17:25;2.23;;;1.40;;
11763;SDS011;5939;56.522;14.950;2022-07-23T06:19:52;1.73;;;1.50;;
11763;SDS011;5939;56.522;14.950;2022-07-23T06:22:18;2.33;;;1.60;;
11763;SDS011;5939;56.522;14.950;2022-07-23T06:24:43;1.87;;;1.70;;
11763;SDS011;5939;56.522;14.950;2022-07-23T06:27:09;3.00;;;1.83;;
11763;SDS011;5939;56.522;14.950;2022-07-23T06:29:35;2.40;;;1.77;;
11763;SDS011;5939;56.522;14.950;2022-07-23T06:32:00;2.60;;;1.70;;
11763;SDS011;5939;56.522;14.950;2022-07-23T06:34:26;3.10;;;1.87;;
11763;SDS011;5939;56.522;14.950;2022-07-23T06:36:52;1.90;;;1.80;;
11763;SDS011;5939;56.522;14.950;2022-07-23T06:39:17;2.17;;;1.80;;
11763;SDS011;5939;56.522;14.950;2022-07-23T06:41:43;2.63;;;1.60;;
11763;SDS011;5939;56.522;14.950;2022-07-23T06:44:08;2.43;;;1.47;;
11763;SDS011;5939;56.522;14.950;2022-07-23T06:46:34;2.07;;;1.60;;
11763;SDS011;5939;56.522;14.950;2022-07-23T06:49:00;2.17;;;1.67;;
11763;SDS011;5939;56.522;14.950;2022-07-23T06:51:26;3.07;;;2.00;;
11763;SDS011;5939;56.522;14.950;2022-07-23T06:53:51;1.93;;;1.57;;
11763;SDS011;5939;56.522;14.950;2022-07-23T06:56:17;3.97;;;2.00;;
11763;SDS011;5939;56.522;14.950;2022-07-23T06:58:43;1.97;;;1.70;;
11763;SDS011;5939;56.522;14.950;2022-07-23T07:01:08;2.30;;;1.80;;
11763;SDS011;5939;56.522;14.950;2022-07-23T07:03:34;2.60;;;1.73;;
11763;SDS011;5939;56.522;14.950;2022-07-23T07:06:00;2.77;;;1.60;;
11763;SDS011;5939;56.522;14.950;2022-07-23T07:08:28;3.60;;;1.60;;
11763;SDS011;5939;56.522;14.950;2022-07-23T07:10:54;1.93;;;1.53;;
11763;SDS011;5939;56.522;14.950;2022-07-23T07:13:19;2.03;;;1.60;;
11763;SDS011;5939;56.522;14.950;2022-07-23T07:15:45;2.07;;;1.47;;
11763;SDS011;5939;56.522;14.950;2022-07-23T07:18:10;2.87;;;1.73;;
11763;SDS011;5939;56.522;14.950;2022-07-23T07:20:36;3.30;;;1.70;;
11763;SDS011;5939;56.522;14.950;2022-07-23T07:23:02;2.33;;;2.00;;
11763;SDS011;5939;56.522;14.950;2022-07-23T07:25:27;1.70;;;1.60;;
11763;SDS011;5939;56.522;14.950;2022-07-23T07:27:53;3.50;;;1.83;;
11763;SDS011;5939;56.522;14.950;2022-07-23T07:30:19;2.80;;;1.70;;
11763;SDS011;5939;56.522;14.950;2022-07-23T07:32:44;1.73;;;1.63;;
11763;SDS011;5939;56.522;14.950;2022-07-23T07:35:10;2.00;;;1.70;;
11763;SDS011;5939;56.522;14.950;2022-07-23T07:37:36;2.90;;;1.77;;
11763;SDS011;5939;56.522;14.950;2022-07-23T07:40:02;2.13;;;1.73;;
11763;SDS011;5939;56.522;14.950;2022-07-23T07:42:28;2.83;;;1.80;;
11763;SDS011;5939;56.522;14.950;2022-07-23T07:44:54;3.07;;;1.90;;
11763;SDS011;5939;56.522;14.950;2022-07-23T07:47:20;2.60;;;1.67;;
11763;SDS011;5939;56.522;14.950;2022-07-23T07:49:45;1.53;;;1.43;;
11763;SDS011;5939;56.522;14.950;2022-07-23T07:52:11;2.23;;;1.80;;
11763;SDS011;5939;56.522;14.950;2022-07-23T07:54:37;1.67;;;1.50;;
11763;SDS011;5939;56.522;14.950;2022-07-23T07:57:02;1.57;;;1.47;;
11763;SDS011;5939;56.522;14.950;2022-07-23T07:59:28;2.10;;;1.80;;
11763;SDS011;5939;56.522;14.950;2022-07-23T08:01:54;1.70;;;1.50;;
11763;SDS011;5939;56.522;14.950;2022-07-23T08:04:20;1.70;;;1.60;;
11763;SDS011;5939;56.522;14.950;2022-07-23T08:06:45;3.10;;;1.83;;
11763;SDS011;5939;56.522;14.950;2022-07-23T08:09:11;5.73;;;2.20;;
11763;SDS011;5939;56.522;14.950;2022-07-23T08:11:37;2.07;;;1.77;;
11763;SDS011;5939;56.522;14.950;2022-07-23T08:14:02;2.10;;;1.83;;
11763;SDS011;5939;56.522;14.950;2022-07-23T08:16:28;1.90;;;1.67;;
11763;SDS011;5939;56.522;14.950;2022-07-23T08:18:54;1.60;;;1.50;;
11763;SDS011;5939;56.522;14.950;2022-07-23T08:21:19;2.90;;;1.70;;
11763;SDS011;5939;56.522;14.950;2022-07-23T08:23:45;1.67;;;1.57;;
11763;SDS011;5939;56.522;14.950;2022-07-23T08:26:11;2.40;;;1.70;;
11763;SDS011;5939;56.522;14.950;2022-07-23T08:28:36;2.00;;;1.80;;
11763;SDS011;5939;56.522;14.950;2022-07-23T08:31:02;1.87;;;1.70;;
11763;SDS011;5939;56.522;14.950;2022-07-23T08:33:30;2.60;;;1.70;;
11763;SDS011;5939;56.522;14.950;2022-07-23T08:35:56;1.50;;;1.40;;
11763;SDS011;5939;56.522;14.950;2022-07-23T08:38:23;2.33;;;1.70;;
11763;SDS011;5939;56.522;14.950;2022-07-23T08:40:53;1.60;;;1.50;;
11763;SDS011;5939;56.522;14.950;2022-07-23T08:43:21;2.30;;;1.73;;
11763;SDS011;5939;56.522;14.950;2022-07-23T08:45:49;1.60;;;1.50;;
11763;SDS011;5939;56.522;14.950;2022-07-23T08:48:20;1.40;;;1.30;;
11763;SDS011;5939;56.522;14.950;2022-07-23T08:50:48;1.90;;;1.53;;
11763;SDS011;5939;56.522;14.950;2022-07-23T08:53:16;2.13;;;1.50;;
11763;SDS011;5939;56.522;14.950;2022-07-23T08:55:43;2.80;;;1.43;;
11763;SDS011;5939;56.522;14.950;2022-07-23T08:58:10;2.10;;;1.57;;
11763;SDS011;5939;56.522;14.950;2022-07-23T09:00:36;1.50;;;1.40;;
11763;SDS011;5939;56.522;14.950;2022-07-23T09:03:02;1.70;;;1.60;;
11763;SDS011;5939;56.522;14.950;2022-07-23T09:05:28;2.37;;;1.70;;
11763;SDS011;5939;56.522;14.950;2022-07-23T09:13:25;2.30;;;1.53;;
11763;SDS011;5939;56.522;14.950;2022-07-23T09:15:59;5.37;;;1.97;;
11763;SDS011;5939;56.522;14.950;2022-07-23T09:23:38;1.67;;;1.50;;
11763;SDS011;5939;56.522;14.950;2022-07-23T09:28:56;3.70;;;1.70;;
11763;SDS011;5939;56.522;14.950;2022-07-23T09:31:34;4.53;;;1.70;;
11763;SDS011;5939;56.522;14.950;2022-07-23T09:34:12;3.00;;;1.60;;
11763;SDS011;5939;56.522;14.950;2022-07-23T09:36:39;2.07;;;1.60;;
11763;SDS011;5939;56.522;14.950;2022-07-23T09:39:05;4.63;;;2.03;;
11763;SDS011;5939;56.522;14.950;2022-07-23T09:41:36;3.17;;;1.50;;
11763;SDS011;5939;56.522;14.950;2022-07-23T09:44:06;3.80;;;1.60;;
11763;SDS011;5939;56.522;14.950;2022-07-23T09:46:34;1.53;;;1.43;;
11763;SDS011;5939;56.522;14.950;2022-07-23T09:49:00;3.10;;;1.50;;
11763;SDS011;5939;56.522;14.950;2022-07-23T09:51:58;1.33;;;1.23;;
11763;SDS011;5939;56.522;14.950;2022-07-23T09:54:35;2.23;;;1.50;;
11763;SDS011;5939;56.522;14.950;2022-07-23T09:59:36;3.13;;;1.37;;
11763;SDS011;5939;56.522;14.950;2022-07-23T10:02:04;2.03;;;1.30;;
11763;SDS011;5939;56.522;14.950;2022-07-23T10:04:31;1.50;;;1.30;;
11763;SDS011;5939;56.522;14.950;2022-07-23T10:06:58;2.33;;;1.57;;
11763;SDS011;5939;56.522;14.950;2022-07-23T10:09:29;1.70;;;1.50;;
11763;SDS011;5939;56.522;14.950;2022-07-23T10:12:01;1.50;;;1.40;;
11763;SDS011;5939;56.522;14.950;2022-07-23T10:14:38;2.03;;;1.47;;
11763;SDS011;5939;56.522;14.950;2022-07-23T10:17:04;1.73;;;1.50;;
11763;SDS011;5939;56.522;14.950;2022-07-23T10:19:31;2.33;;;1.40;;
11763;SDS011;5939;56.522;14.950;2022-07-23T10:21:58;2.23;;;1.30;;
11763;SDS011;5939;56.522;14.950;2022-07-23T10:30:12;1.30;;;1.20;;
11763;SDS011;5939;56.522;14.950;2022-07-23T10:33:11;1.40;;;1.30;;
11763;SDS011;5939;56.522;14.950;2022-07-23T10:36:03;3.10;;;1.30;;
11763;SDS011;5939;56.522;14.950;2022-07-23T10:38:42;1.43;;;1.33;;
11763;SDS011;5939;56.522;14.950;2022-07-23T10:41:17;1.50;;;1.40;;
11763;SDS011;5939;56.522;14.950;2022-07-23T10:44:06;1.40;;;1.20;;
11763;SDS011;5939;56.522;14.950;2022-07-23T10:46:33;1.40;;;1.20;;
11763;SDS011;5939;56.522;14.950;2022-07-23T10:49:21;2.23;;;1.40;;
11763;SDS011;5939;56.522;14.950;2022-07-23T10:57:47;1.40;;;1.30;;
11763;SDS011;5939;56.522;14.950;2022-07-23T11:00:15;1.40;;;1.30;;
11763;SDS011;5939;56.522;14.950;2022-07-23T11:02:49;2.13;;;1.50;;
11763;SDS011;5939;56.522;14.950;2022-07-23T11:05:17;1.60;;;1.50;;
11763;SDS011;5939;56.522;14.950;2022-07-23T11:11:10;1.50;;;1.40;;
11763;SDS011;5939;56.522;14.950;2022-07-23T11:23:59;1.60;;;1.50;;
11763;SDS011;5939;56.522;14.950;2022-07-23T11:32:02;1.43;;;1.33;;
11763;SDS011;5939;56.522;14.950;2022-07-23T11:34:34;1.40;;;1.30;;
11763;SDS011;5939;56.522;14.950;2022-07-23T11:37:03;1.40;;;1.30;;
11763;SDS011;5939;56.522;14.950;2022-07-23T11:39:30;1.40;;;1.30;;
11763;SDS011;5939;56.522;14.950;2022-07-23T11:41:57;1.47;;;1.37;;
11763;SDS011;5939;56.522;14.950;2022-07-23T11:44:28;2.03;;;1.50;;
11763;SDS011;5939;56.522;14.950;2022-07-23T11:46:56;1.40;;;1.30;;
11763;SDS011;5939;56.522;14.950;2022-07-23T11:49:22;1.50;;;1.40;;
11763;SDS011;5939;56.522;14.950;2022-07-23T11:54:56;1.30;;;1.20;;
11763;SDS011;5939;56.522;14.950;2022-07-23T11:57:24;1.37;;;1.27;;
11763;SDS011;5939;56.522;14.950;2022-07-23T11:59:53;1.40;;;1.30;;
11763;SDS011;5939;56.522;14.950;2022-07-23T12:02:21;1.50;;;1.40;;
11763;SDS011;5939;56.522;14.950;2022-07-23T12:04:48;1.63;;;1.53;;
11763;SDS011;5939;56.522;14.950;2022-07-23T12:07:24;1.40;;;1.30;;
11763;SDS011;5939;56.522;14.950;2022-07-23T12:09:55;1.53;;;1.40;;
11763;SDS011;5939;56.522;14.950;2022-07-23T12:12:25;1.60;;;1.50;;
11763;SDS011;5939;56.522;14.950;2022-07-23T12:14:55;2.10;;;1.70;;
11763;SDS011;5939;56.522;14.950;2022-07-23T12:17:27;1.70;;;1.60;;
11763;SDS011;5939;56.522;14.950;2022-07-23T12:19:55;1.50;;;1.40;;
11763;SDS011;5939;56.522;14.950;2022-07-23T12:22:23;1.30;;;1.20;;
11763;SDS011;5939;56.522;14.950;2022-07-23T12:27:23;2.03;;;1.27;;
11763;SDS011;5939;56.522;14.950;2022-07-23T12:29:49;1.60;;;1.50;;
11763;SDS011;5939;56.522;14.950;2022-07-23T12:34:49;1.43;;;1.33;;
11763;SDS011;5939;56.522;14.950;2022-07-23T12:37:26;1.57;;;1.47;;
11763;SDS011;5939;56.522;14.950;2022-07-23T12:39:56;1.60;;;1.50;;
11763;SDS011;5939;56.522;14.950;2022-07-23T12:42:22;2.17;;;1.40;;
11763;SDS011;5939;56.522;14.950;2022-07-23T12:45:07;1.30;;;1.20;;
11763;SDS011;5939;56.522;14.950;2022-07-23T12:50:30;1.53;;;1.43;;
11763;SDS011;5939;56.522;14.950;2022-07-23T12:53:08;1.40;;;1.30;;
11763;SDS011;5939;56.522;14.950;2022-07-23T12:55:35;1.30;;;1.20;;
11763;SDS011;5939;56.522;14.950;2022-07-23T12:58:09;1.50;;;1.40;;
11763;SDS011;5939;56.522;14.950;2022-07-23T13:01:10;1.20;;;1.10;;
11763;SDS011;5939;56.522;14.950;2022-07-23T13:03:34;1.40;;;1.30;;
11763;SDS011;5939;56.522;14.950;2022-07-23T13:06:06;1.47;;;1.37;;
11763;SDS011;5939;56.522;14.950;2022-07-23T13:08:34;1.40;;;1.30;;
11763;SDS011;5939;56.522;14.950;2022-07-23T13:11:01;1.20;;;1.10;;
11763;SDS011;5939;56.522;14.950;2022-07-23T13:13:29;1.40;;;1.30;;
11763;SDS011;5939;56.522;14.950;2022-07-23T13:15:56;1.37;;;1.27;;
11763;SDS011;5939;56.522;14.950;2022-07-23T13:18:23;1.50;;;1.40;;
11763;SDS011;5939;56.522;14.950;2022-07-23T13:20:49;1.20;;;1.10;;
11763;SDS011;5939;56.522;14.950;2022-07-23T13:23:15;1.20;;;1.10;;
11763;SDS011;5939;56.522;14.950;2022-07-23T13:25:41;1.40;;;1.30;;
11763;SDS011;5939;56.522;14.950;2022-07-23T13:28:07;1.53;;;1.43;;
11763;SDS011;5939;56.522;14.950;2022-07-23T13:30:33;1.07;;;1.07;;
11763;SDS011;5939;56.522;14.950;2022-07-23T13:33:00;1.47;;;1.37;;
11763;SDS011;5939;56.522;14.950;2022-07-23T13:35:28;1.00;;;1.00;;
11763;SDS011;5939;56.522;14.950;2022-07-23T13:37:54;1.30;;;1.20;;
11763;SDS011;5939;56.522;14.950;2022-07-23T13:40:19;1.10;;;1.10;;
11763;SDS011;5939;56.522;14.950;2022-07-23T13:42:45;1.20;;;1.10;;
11763;SDS011;5939;56.522;14.950;2022-07-23T13:45:11;1.40;;;1.30;;
11763;SDS011;5939;56.522;14.950;2022-07-23T13:47:37;1.73;;;1.10;;
11763;SDS011;5939;56.522;14.950;2022-07-23T13:50:03;1.30;;;1.20;;
11763;SDS011;5939;56.522;14.950;2022-07-23T13:52:29;1.40;;;1.30;;
11763;SDS011;5939;56.522;14.950;2022-07-23T13:54:55;1.40;;;1.30;;
11763;SDS011;5939;56.522;14.950;2022-07-23T13:57:20;1.30;;;1.20;;
11763;SDS011;5939;56.522;14.950;2022-07-23T13:59:46;1.10;;;1.00;;
11763;SDS011;5939;56.522;14.950;2022-07-23T14:02:12;1.27;;;1.17;;
11763;SDS011;5939;56.522;14.950;2022-07-23T14:04:41;1.13;;;1.10;;
11763;SDS011;5939;56.522;14.950;2022-07-23T14:07:07;1.30;;;1.20;;
11763;SDS011;5939;56.522;14.950;2022-07-23T14:09:33;1.20;;;1.10;;
11763;SDS011;5939;56.522;14.950;2022-07-23T14:11:59;1.40;;;1.30;;
11763;SDS011;5939;56.522;14.950;2022-07-23T14:14:25;1.30;;;1.20;;
11763;SDS011;5939;56.522;14.950;2022-07-23T14:16:51;1.30;;;1.20;;
11763;SDS011;5939;56.522;14.950;2022-07-23T14:19:16;1.20;;;1.10;;
11763;SDS011;5939;56.522;14.950;2022-07-23T14:21:42;1.23;;;1.13;;
11763;SDS011;5939;56.522;14.950;2022-07-23T14:24:08;1.50;;;1.40;;
11763;SDS011;5939;56.522;14.950;2022-07-23T14:26:33;1.23;;;1.13;;
11763;SDS011;5939;56.522;14.950;2022-07-23T14:28:59;1.30;;;1.20;;
11763;SDS011;5939;56.522;14.950;2022-07-23T14:31:26;1.17;;;1.07;;
11763;SDS011;5939;56.522;14.950;2022-07-23T14:33:52;1.43;;;1.33;;
11763;SDS011;5939;56.522;14.950;2022-07-23T14:36:17;1.40;;;1.30;;
11763;SDS011;5939;56.522;14.950;2022-07-23T14:38:43;1.87;;;1.30;;
11763;SDS011;5939;56.522;14.950;2022-07-23T14:41:09;1.30;;;1.20;;
11763;SDS011;5939;56.522;14.950;2022-07-23T14:43:35;1.50;;;1.40;;
11763;SDS011;5939;56.522;14.950;2022-07-23T14:46:02;1.20;;;1.10;;
11763;SDS011;5939;56.522;14.950;2022-07-23T14:48:28;1.30;;;1.20;;
11763;SDS011;5939;56.522;14.950;2022-07-23T14:50:53;1.07;;;1.07;;
11763;SDS011;5939;56.522;14.950;2022-07-23T14:53:19;1.00;;;1.00;;
11763;SDS011;5939;56.522;14.950;2022-07-23T14:55:45;1.20;;;1.10;;
11763;SDS011;5939;56.522;14.950;2022-07-23T14:58:10;1.20;;;1.10;;
11763;SDS011;5939;56.522;14.950;2022-07-23T15:00:36;1.40;;;1.30;;
11763;SDS011;5939;56.522;14.950;2022-07-23T15:03:02;1.40;;;1.30;;
11763;SDS011;5939;56.522;14.950;2022-07-23T15:05:27;1.03;;;1.03;;
11763;SDS011;5939;56.522;14.950;2022-07-23T15:07:54;1.20;;;1.10;;
11763;SDS011;5939;56.522;14.950;2022-07-23T15:10:20;1.70;;;1.60;;
11763;SDS011;5939;56.522;14.950;2022-07-23T15:12:45;1.40;;;1.20;;
11763;SDS011;5939;56.522;14.950;2022-07-23T15:15:11;1.60;;;1.40;;
11763;SDS011;5939;56.522;14.950;2022-07-23T15:17:37;1.57;;;1.40;;
11763;SDS011;5939;56.522;14.950;2022-07-23T15:20:03;1.30;;;1.20;;
11763;SDS011;5939;56.522;14.950;2022-07-23T15:22:30;1.60;;;1.50;;
11763;SDS011;5939;56.522;14.950;2022-07-23T15:24:55;1.40;;;1.30;;
11763;SDS011;5939;56.522;14.950;2022-07-23T15:27:21;1.20;;;1.10;;
11763;SDS011;5939;56.522;14.950;2022-07-23T15:29:47;1.40;;;1.30;;
11763;SDS011;5939;56.522;14.950;2022-07-23T15:32:12;1.40;;;1.30;;
11763;SDS011;5939;56.522;14.950;2022-07-23T15:34:38;1.30;;;1.20;;
11763;SDS011;5939;56.522;14.950;2022-07-23T15:37:04;1.37;;;1.27;;
11763;SDS011;5939;56.522;14.950;2022-07-23T15:39:31;1.40;;;1.30;;
11763;SDS011;5939;56.522;14.950;2022-07-23T15:42:00;1.40;;;1.30;;
11763;SDS011;5939;56.522;14.950;2022-07-23T15:44:27;1.33;;;1.23;;
11763;SDS011;5939;56.522;14.950;2022-07-23T15:46:52;1.40;;;1.30;;